sensor_id;sensor_type;location;lat;lon;timestamp;P1;durP1;ratioP1;P2;durP2;ratioP2
11394;SDS011;5753;54.402;10.220;2023-07-20T00:01:35;11.75;;;2.83;;
11394;SDS011;5753;54.402;10.220;2023-07-20T00:04:03;2.03;;;1.67;;
11394;SDS011;5753;54.402;10.220;2023-07-20T00:06:29;2.10;;;1.88;;
11394;SDS011;5753;54.402;10.220;2023-07-20T00:08:55;1.70;;;1.60;;
11394;SDS011;5753;54.402;10.220;2023-07-20T00:11:26;3.08;;;2.00;;
11394;SDS011;5753;54.402;10.220;2023-07-20T00:13:53;3.40;;;2.08;;
11394;SDS011;5753;54.402;10.220;2023-07-20T00:16:19;2.80;;;2.15;;
11394;SDS011;5753;54.402;10.220;2023-07-20T00:18:45;2.35;;;2.20;;
11394;SDS011;5753;54.402;10.220;2023-07-20T00:21:11;2.45;;;2.25;;
11394;SDS011;5753;54.402;10.220;2023-07-20T00:23:37;3.35;;;2.63;;
11394;SDS011;5753;54.402;10.220;2023-07-20T00:26:03;2.22;;;2.03;;
11394;SDS011;5753;54.402;10.220;2023-07-20T00:28:29;2.85;;;2.42;;
11394;SDS011;5753;54.402;10.220;2023-07-20T00:30:55;2.00;;;1.80;;
11394;SDS011;5753;54.402;10.220;2023-07-20T00:33:24;1.80;;;1.52;;
11394;SDS011;5753;54.402;10.220;2023-07-20T00:35:50;3.22;;;2.83;;
11394;SDS011;5753;54.402;10.220;2023-07-20T00:38:16;3.17;;;2.08;;
11394;SDS011;5753;54.402;10.220;2023-07-20T00:40:42;7.30;;;2.53;;
11394;SDS011;5753;54.402;10.220;2023-07-20T00:43:08;1.77;;;1.67;;
11394;SDS011;5753;54.402;10.220;2023-07-20T00:45:35;2.03;;;1.92;;
11394;SDS011;5753;54.402;10.220;2023-07-20T00:48:03;7.13;;;2.25;;
11394;SDS011;5753;54.402;10.220;2023-07-20T00:50:31;2.38;;;2.17;;
11394;SDS011;5753;54.402;10.220;2023-07-20T00:52:58;2.92;;;1.95;;
11394;SDS011;5753;54.402;10.220;2023-07-20T00:55:25;3.13;;;2.72;;
11394;SDS011;5753;54.402;10.220;2023-07-20T00:57:53;2.97;;;2.17;;
11394;SDS011;5753;54.402;10.220;2023-07-20T01:00:19;2.55;;;2.35;;
11394;SDS011;5753;54.402;10.220;2023-07-20T01:02:45;3.78;;;3.03;;
11394;SDS011;5753;54.402;10.220;2023-07-20T01:05:12;2.78;;;1.92;;
11394;SDS011;5753;54.402;10.220;2023-07-20T01:10:33;4.47;;;1.95;;
11394;SDS011;5753;54.402;10.220;2023-07-20T01:13:09;2.63;;;2.10;;
11394;SDS011;5753;54.402;10.220;2023-07-20T01:15:38;3.70;;;3.35;;
11394;SDS011;5753;54.402;10.220;2023-07-20T01:18:04;2.92;;;2.63;;
11394;SDS011;5753;54.402;10.220;2023-07-20T01:20:31;3.65;;;3.20;;
11394;SDS011;5753;54.402;10.220;2023-07-20T01:25:40;3.00;;;2.63;;
11394;SDS011;5753;54.402;10.220;2023-07-20T01:33:46;3.20;;;2.08;;
11394;SDS011;5753;54.402;10.220;2023-07-20T01:36:13;4.10;;;2.85;;
11394;SDS011;5753;54.402;10.220;2023-07-20T01:38:42;7.50;;;2.80;;
11394;SDS011;5753;54.402;10.220;2023-07-20T01:41:10;3.30;;;2.65;;
11394;SDS011;5753;54.402;10.220;2023-07-20T01:43:36;2.47;;;2.03;;
11394;SDS011;5753;54.402;10.220;2023-07-20T01:46:02;4.35;;;2.50;;
11394;SDS011;5753;54.402;10.220;2023-07-20T01:48:28;2.97;;;2.63;;
11394;SDS011;5753;54.402;10.220;2023-07-20T01:50:55;3.17;;;2.83;;
11394;SDS011;5753;54.402;10.220;2023-07-20T01:53:21;4.65;;;3.05;;
11394;SDS011;5753;54.402;10.220;2023-07-20T01:55:47;3.50;;;3.20;;
11394;SDS011;5753;54.402;10.220;2023-07-20T01:58:14;4.07;;;2.30;;
11394;SDS011;5753;54.402;10.220;2023-07-20T02:00:40;5.63;;;3.50;;
11394;SDS011;5753;54.402;10.220;2023-07-20T02:03:06;3.10;;;2.67;;
11394;SDS011;5753;54.402;10.220;2023-07-20T02:05:32;3.58;;;1.98;;
11394;SDS011;5753;54.402;10.220;2023-07-20T02:07:58;5.93;;;2.28;;
11394;SDS011;5753;54.402;10.220;2023-07-20T02:10:24;3.40;;;3.10;;
11394;SDS011;5753;54.402;10.220;2023-07-20T02:12:50;5.40;;;2.88;;
11394;SDS011;5753;54.402;10.220;2023-07-20T02:15:16;2.00;;;1.83;;
11394;SDS011;5753;54.402;10.220;2023-07-20T02:17:43;4.63;;;3.08;;
11394;SDS011;5753;54.402;10.220;2023-07-20T02:20:10;2.28;;;2.08;;
11394;SDS011;5753;54.402;10.220;2023-07-20T02:22:36;4.60;;;3.22;;
11394;SDS011;5753;54.402;10.220;2023-07-20T02:25:04;3.58;;;3.22;;
11394;SDS011;5753;54.402;10.220;2023-07-20T02:27:30;2.85;;;2.47;;
11394;SDS011;5753;54.402;10.220;2023-07-20T02:29:56;3.22;;;2.92;;
11394;SDS011;5753;54.402;10.220;2023-07-20T02:32:22;2.63;;;2.42;;
11394;SDS011;5753;54.402;10.220;2023-07-20T02:34:48;4.55;;;2.85;;
11394;SDS011;5753;54.402;10.220;2023-07-20T02:37:16;4.63;;;3.53;;
11394;SDS011;5753;54.402;10.220;2023-07-20T02:39:42;3.45;;;2.97;;
11394;SDS011;5753;54.402;10.220;2023-07-20T02:42:08;4.97;;;3.42;;
11394;SDS011;5753;54.402;10.220;2023-07-20T02:44:34;3.08;;;2.72;;
11394;SDS011;5753;54.402;10.220;2023-07-20T02:47:00;4.35;;;2.53;;
11394;SDS011;5753;54.402;10.220;2023-07-20T02:49:26;4.60;;;2.90;;
11394;SDS011;5753;54.402;10.220;2023-07-20T02:51:52;4.28;;;3.85;;
11394;SDS011;5753;54.402;10.220;2023-07-20T02:54:19;5.68;;;2.38;;
11394;SDS011;5753;54.402;10.220;2023-07-20T02:56:45;4.55;;;3.85;;
11394;SDS011;5753;54.402;10.220;2023-07-20T02:59:11;3.25;;;2.53;;
11394;SDS011;5753;54.402;10.220;2023-07-20T03:01:37;5.07;;;3.80;;
11394;SDS011;5753;54.402;10.220;2023-07-20T03:04:04;8.68;;;3.88;;
11394;SDS011;5753;54.402;10.220;2023-07-20T03:06:30;6.82;;;4.65;;
11394;SDS011;5753;54.402;10.220;2023-07-20T03:08:56;4.95;;;3.42;;
11394;SDS011;5753;54.402;10.220;2023-07-20T03:11:22;3.97;;;2.65;;
11394;SDS011;5753;54.402;10.220;2023-07-20T03:13:48;4.18;;;3.78;;
11394;SDS011;5753;54.402;10.220;2023-07-20T03:16:18;6.55;;;3.90;;
11394;SDS011;5753;54.402;10.220;2023-07-20T03:18:45;3.05;;;2.75;;
11394;SDS011;5753;54.402;10.220;2023-07-20T03:21:11;3.35;;;2.28;;
11394;SDS011;5753;54.402;10.220;2023-07-20T03:23:37;3.25;;;2.95;;
11394;SDS011;5753;54.402;10.220;2023-07-20T03:26:05;3.30;;;2.55;;
11394;SDS011;5753;54.402;10.220;2023-07-20T03:28:33;2.63;;;2.42;;
11394;SDS011;5753;54.402;10.220;2023-07-20T03:31:03;7.28;;;2.22;;
11394;SDS011;5753;54.402;10.220;2023-07-20T03:33:31;5.93;;;3.05;;
11394;SDS011;5753;54.402;10.220;2023-07-20T03:35:58;2.67;;;2.22;;
11394;SDS011;5753;54.402;10.220;2023-07-20T03:38:25;3.67;;;3.33;;
11394;SDS011;5753;54.402;10.220;2023-07-20T03:40:53;3.42;;;2.45;;
11394;SDS011;5753;54.402;10.220;2023-07-20T03:43:24;1.88;;;1.50;;
11394;SDS011;5753;54.402;10.220;2023-07-20T03:45:51;2.92;;;1.52;;
11394;SDS011;5753;54.402;10.220;2023-07-20T03:48:19;1.65;;;1.55;;
11394;SDS011;5753;54.402;10.220;2023-07-20T03:50:47;1.70;;;1.60;;
11394;SDS011;5753;54.402;10.220;2023-07-20T03:53:14;2.25;;;1.40;;
11394;SDS011;5753;54.402;10.220;2023-07-20T03:55:51;2.45;;;1.50;;
11394;SDS011;5753;54.402;10.220;2023-07-20T03:58:18;2.25;;;2.05;;
11394;SDS011;5753;54.402;10.220;2023-07-20T04:00:49;8.57;;;2.58;;
11394;SDS011;5753;54.402;10.220;2023-07-20T04:03:17;1.25;;;1.15;;
11394;SDS011;5753;54.402;10.220;2023-07-20T04:05:49;9.10;;;3.13;;
11394;SDS011;5753;54.402;10.220;2023-07-20T04:08:15;1.67;;;1.58;;
11394;SDS011;5753;54.402;10.220;2023-07-20T04:10:45;10.27;;;1.80;;
11394;SDS011;5753;54.402;10.220;2023-07-20T04:13:11;2.05;;;1.40;;
11394;SDS011;5753;54.402;10.220;2023-07-20T04:15:37;8.57;;;1.42;;
11394;SDS011;5753;54.402;10.220;2023-07-20T04:18:04;1.45;;;1.35;;
11394;SDS011;5753;54.402;10.220;2023-07-20T04:20:30;2.95;;;1.42;;
11394;SDS011;5753;54.402;10.220;2023-07-20T04:22:56;3.60;;;1.58;;
11394;SDS011;5753;54.402;10.220;2023-07-20T04:25:22;2.58;;;2.15;;
11394;SDS011;5753;54.402;10.220;2023-07-20T04:27:48;1.35;;;0.80;;
11394;SDS011;5753;54.402;10.220;2023-07-20T04:30:16;5.50;;;1.60;;
11394;SDS011;5753;54.402;10.220;2023-07-20T04:32:45;2.22;;;1.67;;
11394;SDS011;5753;54.402;10.220;2023-07-20T04:35:17;1.58;;;1.20;;
11394;SDS011;5753;54.402;10.220;2023-07-20T04:38:03;1.95;;;1.40;;
11394;SDS011;5753;54.402;10.220;2023-07-20T04:40:29;4.68;;;2.17;;
11394;SDS011;5753;54.402;10.220;2023-07-20T04:42:55;3.30;;;1.27;;
11394;SDS011;5753;54.402;10.220;2023-07-20T04:45:21;1.67;;;1.58;;
11394;SDS011;5753;54.402;10.220;2023-07-20T04:47:49;6.43;;;1.35;;
11394;SDS011;5753;54.402;10.220;2023-07-20T04:50:16;2.55;;;2.35;;
11394;SDS011;5753;54.402;10.220;2023-07-20T04:52:42;2.75;;;2.40;;
11394;SDS011;5753;54.402;10.220;2023-07-20T04:55:08;2.17;;;1.48;;
11394;SDS011;5753;54.402;10.220;2023-07-20T04:57:34;1.95;;;1.50;;
11394;SDS011;5753;54.402;10.220;2023-07-20T05:00:00;1.90;;;1.48;;
11394;SDS011;5753;54.402;10.220;2023-07-20T05:02:26;1.92;;;1.67;;
11394;SDS011;5753;54.402;10.220;2023-07-20T05:04:52;3.28;;;2.15;;
11394;SDS011;5753;54.402;10.220;2023-07-20T05:07:18;2.20;;;1.15;;
11394;SDS011;5753;54.402;10.220;2023-07-20T05:09:44;2.17;;;1.10;;
11394;SDS011;5753;54.402;10.220;2023-07-20T05:12:10;1.52;;;1.42;;
11394;SDS011;5753;54.402;10.220;2023-07-20T05:14:37;3.50;;;1.10;;
11394;SDS011;5753;54.402;10.220;2023-07-20T05:17:03;3.70;;;1.13;;
11394;SDS011;5753;54.402;10.220;2023-07-20T05:19:30;1.27;;;1.17;;
11394;SDS011;5753;54.402;10.220;2023-07-20T05:21:56;2.33;;;2.00;;
11394;SDS011;5753;54.402;10.220;2023-07-20T05:24:22;1.55;;;1.38;;
11394;SDS011;5753;54.402;10.220;2023-07-20T05:26:48;8.13;;;3.92;;
11394;SDS011;5753;54.402;10.220;2023-07-20T05:29:14;3.40;;;1.95;;
11394;SDS011;5753;54.402;10.220;2023-07-20T05:31:40;1.02;;;1.02;;
11394;SDS011;5753;54.402;10.220;2023-07-20T05:34:06;3.65;;;1.23;;
11394;SDS011;5753;54.402;10.220;2023-07-20T05:36:32;4.38;;;1.98;;
11394;SDS011;5753;54.402;10.220;2023-07-20T05:38:58;3.50;;;2.05;;
11394;SDS011;5753;54.402;10.220;2023-07-20T05:41:24;2.47;;;0.82;;
11394;SDS011;5753;54.402;10.220;2023-07-20T05:43:50;2.03;;;1.70;;
11394;SDS011;5753;54.402;10.220;2023-07-20T05:46:17;1.13;;;0.80;;
11394;SDS011;5753;54.402;10.220;2023-07-20T05:48:43;2.63;;;1.05;;
11394;SDS011;5753;54.402;10.220;2023-07-20T05:51:09;0.70;;;0.70;;
11394;SDS011;5753;54.402;10.220;2023-07-20T05:53:35;3.28;;;1.88;;
11394;SDS011;5753;54.402;10.220;2023-07-20T05:56:01;12.27;;;3.45;;
11394;SDS011;5753;54.402;10.220;2023-07-20T05:58:28;2.25;;;1.13;;
11394;SDS011;5753;54.402;10.220;2023-07-20T06:00:54;4.85;;;2.53;;
11394;SDS011;5753;54.402;10.220;2023-07-20T06:03:20;1.13;;;1.05;;
11394;SDS011;5753;54.402;10.220;2023-07-20T06:05:47;1.85;;;1.05;;
11394;SDS011;5753;54.402;10.220;2023-07-20T06:08:13;4.10;;;2.42;;
11394;SDS011;5753;54.402;10.220;2023-07-20T06:10:39;2.90;;;1.20;;
11394;SDS011;5753;54.402;10.220;2023-07-20T06:13:05;3.60;;;1.70;;
11394;SDS011;5753;54.402;10.220;2023-07-20T06:15:32;2.95;;;1.45;;
11394;SDS011;5753;54.402;10.220;2023-07-20T06:18:03;8.15;;;1.90;;
11394;SDS011;5753;54.402;10.220;2023-07-20T06:20:29;3.53;;;2.50;;
11394;SDS011;5753;54.402;10.220;2023-07-20T06:22:55;4.22;;;1.55;;
11394;SDS011;5753;54.402;10.220;2023-07-20T06:25:21;7.57;;;3.33;;
11394;SDS011;5753;54.402;10.220;2023-07-20T06:27:49;1.77;;;1.60;;
11394;SDS011;5753;54.402;10.220;2023-07-20T06:30:18;7.55;;;1.77;;
11394;SDS011;5753;54.402;10.220;2023-07-20T06:32:44;3.90;;;1.55;;
11394;SDS011;5753;54.402;10.220;2023-07-20T06:35:11;2.65;;;1.30;;
11394;SDS011;5753;54.402;10.220;2023-07-20T06:37:37;4.43;;;2.65;;
11394;SDS011;5753;54.402;10.220;2023-07-20T06:40:03;3.50;;;1.48;;
11394;SDS011;5753;54.402;10.220;2023-07-20T06:42:30;8.60;;;3.63;;
11394;SDS011;5753;54.402;10.220;2023-07-20T06:44:56;4.07;;;1.80;;
11394;SDS011;5753;54.402;10.220;2023-07-20T06:47:23;1.67;;;1.50;;
11394;SDS011;5753;54.402;10.220;2023-07-20T06:49:49;3.30;;;1.02;;
11394;SDS011;5753;54.402;10.220;2023-07-20T06:52:15;2.08;;;1.52;;
11394;SDS011;5753;54.402;10.220;2023-07-20T06:54:41;2.20;;;1.08;;
11394;SDS011;5753;54.402;10.220;2023-07-20T06:57:07;9.40;;;3.63;;
11394;SDS011;5753;54.402;10.220;2023-07-20T06:59:33;14.98;;;4.05;;
11394;SDS011;5753;54.402;10.220;2023-07-20T07:01:59;3.90;;;2.30;;
11394;SDS011;5753;54.402;10.220;2023-07-20T07:04:25;3.65;;;2.08;;
11394;SDS011;5753;54.402;10.220;2023-07-20T07:06:52;5.40;;;1.67;;
11394;SDS011;5753;54.402;10.220;2023-07-20T07:09:18;3.03;;;1.92;;
11394;SDS011;5753;54.402;10.220;2023-07-20T07:11:45;3.22;;;2.00;;
11394;SDS011;5753;54.402;10.220;2023-07-20T07:14:12;4.55;;;1.77;;
11394;SDS011;5753;54.402;10.220;2023-07-20T07:16:38;8.55;;;3.35;;
11394;SDS011;5753;54.402;10.220;2023-07-20T07:19:04;3.65;;;0.98;;
11394;SDS011;5753;54.402;10.220;2023-07-20T07:21:32;4.05;;;1.77;;
11394;SDS011;5753;54.402;10.220;2023-07-20T07:23:58;6.82;;;2.60;;
11394;SDS011;5753;54.402;10.220;2023-07-20T07:26:25;3.13;;;2.65;;
11394;SDS011;5753;54.402;10.220;2023-07-20T07:28:51;3.65;;;1.30;;
11394;SDS011;5753;54.402;10.220;2023-07-20T07:31:17;5.40;;;1.65;;
11394;SDS011;5753;54.402;10.220;2023-07-20T07:33:43;4.60;;;1.90;;
11394;SDS011;5753;54.402;10.220;2023-07-20T07:36:09;2.22;;;1.30;;
11394;SDS011;5753;54.402;10.220;2023-07-20T07:38:35;5.00;;;1.58;;
11394;SDS011;5753;54.402;10.220;2023-07-20T07:41:01;5.65;;;2.78;;
11394;SDS011;5753;54.402;10.220;2023-07-20T07:43:27;4.13;;;1.52;;
11394;SDS011;5753;54.402;10.220;2023-07-20T07:45:53;5.50;;;2.13;;
11394;SDS011;5753;54.402;10.220;2023-07-20T07:48:20;3.47;;;1.50;;
11394;SDS011;5753;54.402;10.220;2023-07-20T07:50:47;3.35;;;2.22;;
11394;SDS011;5753;54.402;10.220;2023-07-20T07:53:14;5.05;;;1.30;;
11394;SDS011;5753;54.402;10.220;2023-07-20T07:55:41;6.65;;;2.88;;
11394;SDS011;5753;54.402;10.220;2023-07-20T07:58:07;3.70;;;2.08;;
11394;SDS011;5753;54.402;10.220;2023-07-20T08:00:33;4.55;;;1.50;;
11394;SDS011;5753;54.402;10.220;2023-07-20T08:02:59;2.95;;;1.60;;
11394;SDS011;5753;54.402;10.220;2023-07-20T08:05:25;10.43;;;1.67;;
11394;SDS011;5753;54.402;10.220;2023-07-20T08:07:52;5.50;;;2.13;;
11394;SDS011;5753;54.402;10.220;2023-07-20T08:10:18;4.93;;;2.20;;
11394;SDS011;5753;54.402;10.220;2023-07-20T08:12:44;5.30;;;2.17;;
11394;SDS011;5753;54.402;10.220;2023-07-20T08:15:10;6.90;;;2.70;;
11394;SDS011;5753;54.402;10.220;2023-07-20T08:17:39;3.90;;;2.72;;
11394;SDS011;5753;54.402;10.220;2023-07-20T08:20:09;9.15;;;2.17;;
11394;SDS011;5753;54.402;10.220;2023-07-20T08:22:38;2.25;;;1.77;;
11394;SDS011;5753;54.402;10.220;2023-07-20T08:25:05;1.85;;;0.95;;
11394;SDS011;5753;54.402;10.220;2023-07-20T08:27:32;11.07;;;1.98;;
11394;SDS011;5753;54.402;10.220;2023-07-20T08:29:58;2.35;;;1.75;;
11394;SDS011;5753;54.402;10.220;2023-07-20T08:32:25;3.28;;;2.00;;
11394;SDS011;5753;54.402;10.220;2023-07-20T08:34:51;3.33;;;2.38;;
11394;SDS011;5753;54.402;10.220;2023-07-20T08:37:17;3.40;;;1.50;;
11394;SDS011;5753;54.402;10.220;2023-07-20T08:39:43;10.77;;;2.55;;
11394;SDS011;5753;54.402;10.220;2023-07-20T08:42:10;2.42;;;1.20;;
11394;SDS011;5753;54.402;10.220;2023-07-20T08:44:38;1.58;;;1.42;;
11394;SDS011;5753;54.402;10.220;2023-07-20T08:47:06;5.70;;;2.03;;
11394;SDS011;5753;54.402;10.220;2023-07-20T08:49:33;6.47;;;3.08;;
11394;SDS011;5753;54.402;10.220;2023-07-20T08:52:00;4.65;;;1.35;;
11394;SDS011;5753;54.402;10.220;2023-07-20T08:54:27;2.08;;;1.10;;
11394;SDS011;5753;54.402;10.220;2023-07-20T08:57:02;3.10;;;1.40;;
11394;SDS011;5753;54.402;10.220;2023-07-20T08:59:29;5.00;;;1.45;;
11394;SDS011;5753;54.402;10.220;2023-07-20T09:01:57;2.78;;;1.70;;
11394;SDS011;5753;54.402;10.220;2023-07-20T09:04:25;3.40;;;0.88;;
11394;SDS011;5753;54.402;10.220;2023-07-20T09:06:51;2.58;;;1.23;;
11394;SDS011;5753;54.402;10.220;2023-07-20T09:09:17;4.13;;;1.35;;
11394;SDS011;5753;54.402;10.220;2023-07-20T09:11:46;5.40;;;1.90;;
11394;SDS011;5753;54.402;10.220;2023-07-20T09:14:13;6.05;;;1.45;;
11394;SDS011;5753;54.402;10.220;2023-07-20T09:16:49;1.63;;;1.10;;
11394;SDS011;5753;54.402;10.220;2023-07-20T09:19:19;3.13;;;0.65;;
11394;SDS011;5753;54.402;10.220;2023-07-20T09:21:50;1.73;;;0.95;;
11394;SDS011;5753;54.402;10.220;2023-07-20T09:24:19;4.38;;;1.20;;
11394;SDS011;5753;54.402;10.220;2023-07-20T09:26:47;1.40;;;0.98;;
11394;SDS011;5753;54.402;10.220;2023-07-20T09:29:14;1.05;;;0.82;;
11394;SDS011;5753;54.402;10.220;2023-07-20T09:31:43;1.45;;;0.88;;
11394;SDS011;5753;54.402;10.220;2023-07-20T09:34:23;1.67;;;0.60;;
11394;SDS011;5753;54.402;10.220;2023-07-20T09:36:50;2.95;;;1.02;;
11394;SDS011;5753;54.402;10.220;2023-07-20T09:39:17;5.03;;;2.20;;
11394;SDS011;5753;54.402;10.220;2023-07-20T09:41:43;1.58;;;0.60;;
11394;SDS011;5753;54.402;10.220;2023-07-20T09:44:10;3.20;;;0.68;;
11394;SDS011;5753;54.402;10.220;2023-07-20T09:46:46;1.80;;;0.55;;
11394;SDS011;5753;54.402;10.220;2023-07-20T09:49:13;0.63;;;0.50;;
11394;SDS011;5753;54.402;10.220;2023-07-20T09:51:42;0.77;;;0.40;;
11394;SDS011;5753;54.402;10.220;2023-07-20T09:54:09;0.20;;;0.20;;
11394;SDS011;5753;54.402;10.220;2023-07-20T09:56:36;0.30;;;0.30;;
11394;SDS011;5753;54.402;10.220;2023-07-20T09:59:04;0.17;;;0.17;;
11394;SDS011;5753;54.402;10.220;2023-07-20T10:01:30;0.30;;;0.30;;
11394;SDS011;5753;54.402;10.220;2023-07-20T10:03:59;1.55;;;0.40;;
11394;SDS011;5753;54.402;10.220;2023-07-20T10:06:29;1.25;;;0.70;;
11394;SDS011;5753;54.402;10.220;2023-07-20T10:09:00;1.90;;;0.32;;
11394;SDS011;5753;54.402;10.220;2023-07-20T10:11:30;1.15;;;0.93;;
11394;SDS011;5753;54.402;10.220;2023-07-20T10:13:59;0.55;;;0.32;;
11394;SDS011;5753;54.402;10.220;2023-07-20T10:16:31;0.63;;;0.32;;
11394;SDS011;5753;54.402;10.220;2023-07-20T10:19:05;1.35;;;0.60;;
11394;SDS011;5753;54.402;10.220;2023-07-20T10:21:40;0.80;;;0.32;;
11394;SDS011;5753;54.402;10.220;2023-07-20T10:24:08;0.70;;;0.35;;
11394;SDS011;5753;54.402;10.220;2023-07-20T10:26:36;0.57;;;0.50;;
11394;SDS011;5753;54.402;10.220;2023-07-20T10:29:03;1.23;;;0.73;;
11394;SDS011;5753;54.402;10.220;2023-07-20T10:31:30;1.90;;;0.63;;
11394;SDS011;5753;54.402;10.220;2023-07-20T10:33:57;1.60;;;1.20;;
11394;SDS011;5753;54.402;10.220;2023-07-20T10:36:26;0.50;;;0.50;;
11394;SDS011;5753;54.402;10.220;2023-07-20T10:38:56;1.00;;;0.80;;
11394;SDS011;5753;54.402;10.220;2023-07-20T10:41:33;6.85;;;0.95;;
11394;SDS011;5753;54.402;10.220;2023-07-20T10:44:01;1.02;;;0.70;;
11394;SDS011;5753;54.402;10.220;2023-07-20T10:49:10;1.77;;;0.83;;
11394;SDS011;5753;54.402;10.220;2023-07-20T10:56:41;6.97;;;1.30;;
11394;SDS011;5753;54.402;10.220;2023-07-20T10:59:18;5.43;;;1.50;;
11394;SDS011;5753;54.402;10.220;2023-07-20T11:02:05;9.10;;;1.48;;
11394;SDS011;5753;54.402;10.220;2023-07-20T11:07:08;4.78;;;1.45;;
11394;SDS011;5753;54.402;10.220;2023-07-20T11:09:35;4.03;;;0.90;;
11394;SDS011;5753;54.402;10.220;2023-07-20T11:12:09;1.52;;;0.85;;
11394;SDS011;5753;54.402;10.220;2023-07-20T11:14:39;2.00;;;1.30;;
11394;SDS011;5753;54.402;10.220;2023-07-20T11:17:13;3.08;;;2.25;;
11394;SDS011;5753;54.402;10.220;2023-07-20T11:19:40;3.72;;;1.10;;
11394;SDS011;5753;54.402;10.220;2023-07-20T11:22:07;1.35;;;1.17;;
11394;SDS011;5753;54.402;10.220;2023-07-20T11:24:34;2.25;;;0.98;;
11394;SDS011;5753;54.402;10.220;2023-07-20T11:27:05;3.55;;;1.17;;
11394;SDS011;5753;54.402;10.220;2023-07-20T11:29:31;4.65;;;1.05;;
11394;SDS011;5753;54.402;10.220;2023-07-20T11:31:57;1.73;;;1.58;;
11394;SDS011;5753;54.402;10.220;2023-07-20T11:34:26;6.22;;;2.55;;
11394;SDS011;5753;54.402;10.220;2023-07-20T11:36:56;1.17;;;0.93;;
11394;SDS011;5753;54.402;10.220;2023-07-20T11:39:22;2.90;;;1.10;;
11394;SDS011;5753;54.402;10.220;2023-07-20T11:41:52;2.10;;;1.23;;
11394;SDS011;5753;54.402;10.220;2023-07-20T11:44:20;1.45;;;0.85;;
11394;SDS011;5753;54.402;10.220;2023-07-20T11:46:53;2.80;;;2.60;;
11394;SDS011;5753;54.402;10.220;2023-07-20T11:49:29;2.00;;;0.93;;
11394;SDS011;5753;54.402;10.220;2023-07-20T11:51:56;3.40;;;1.00;;
11394;SDS011;5753;54.402;10.220;2023-07-20T11:54:23;3.28;;;1.50;;
11394;SDS011;5753;54.402;10.220;2023-07-20T11:56:53;6.75;;;1.48;;
11394;SDS011;5753;54.402;10.220;2023-07-20T11:59:22;3.33;;;1.42;;
11394;SDS011;5753;54.402;10.220;2023-07-20T12:01:49;1.95;;;1.45;;
11394;SDS011;5753;54.402;10.220;2023-07-20T12:04:15;2.05;;;1.15;;
11394;SDS011;5753;54.402;10.220;2023-07-20T12:06:41;2.55;;;0.73;;
11394;SDS011;5753;54.402;10.220;2023-07-20T12:09:12;1.30;;;0.77;;
11394;SDS011;5753;54.402;10.220;2023-07-20T12:11:42;4.57;;;1.25;;
11394;SDS011;5753;54.402;10.220;2023-07-20T12:14:12;3.47;;;1.17;;
11394;SDS011;5753;54.402;10.220;2023-07-20T12:16:38;3.17;;;1.23;;
11394;SDS011;5753;54.402;10.220;2023-07-20T12:21:31;5.18;;;2.20;;
11394;SDS011;5753;54.402;10.220;2023-07-20T12:24:01;1.95;;;0.82;;
11394;SDS011;5753;54.402;10.220;2023-07-20T12:26:31;5.70;;;1.52;;
11394;SDS011;5753;54.402;10.220;2023-07-20T12:28:59;2.97;;;1.13;;
11394;SDS011;5753;54.402;10.220;2023-07-20T12:31:25;3.08;;;1.38;;
11394;SDS011;5753;54.402;10.220;2023-07-20T12:33:52;6.65;;;1.88;;
11394;SDS011;5753;54.402;10.220;2023-07-20T12:36:21;1.50;;;1.13;;
11394;SDS011;5753;54.402;10.220;2023-07-20T12:38:48;6.05;;;1.17;;
11394;SDS011;5753;54.402;10.220;2023-07-20T12:41:15;6.22;;;1.30;;
11394;SDS011;5753;54.402;10.220;2023-07-20T12:43:44;2.72;;;1.10;;
11394;SDS011;5753;54.402;10.220;2023-07-20T12:46:11;4.22;;;1.40;;
11394;SDS011;5753;54.402;10.220;2023-07-20T12:48:38;3.88;;;1.45;;
11394;SDS011;5753;54.402;10.220;2023-07-20T12:51:06;2.75;;;1.55;;
11394;SDS011;5753;54.402;10.220;2023-07-20T12:53:34;5.38;;;1.67;;
11394;SDS011;5753;54.402;10.220;2023-07-20T12:56:00;4.93;;;1.17;;
11394;SDS011;5753;54.402;10.220;2023-07-20T12:58:27;4.80;;;1.90;;
11394;SDS011;5753;54.402;10.220;2023-07-20T13:00:53;3.45;;;2.38;;
11394;SDS011;5753;54.402;10.220;2023-07-20T13:03:19;2.88;;;1.20;;
11394;SDS011;5753;54.402;10.220;2023-07-20T13:05:46;4.25;;;1.20;;
11394;SDS011;5753;54.402;10.220;2023-07-20T13:08:12;3.72;;;1.08;;
11394;SDS011;5753;54.402;10.220;2023-07-20T13:10:39;6.40;;;2.00;;
11394;SDS011;5753;54.402;10.220;2023-07-20T13:13:05;10.18;;;1.45;;
11394;SDS011;5753;54.402;10.220;2023-07-20T13:15:32;3.92;;;1.25;;
11394;SDS011;5753;54.402;10.220;2023-07-20T13:18:06;3.45;;;1.10;;
11394;SDS011;5753;54.402;10.220;2023-07-20T13:20:32;2.33;;;1.27;;
11394;SDS011;5753;54.402;10.220;2023-07-20T13:22:58;1.20;;;0.90;;
11394;SDS011;5753;54.402;10.220;2023-07-20T13:25:24;2.05;;;0.85;;
11394;SDS011;5753;54.402;10.220;2023-07-20T13:27:51;4.72;;;0.80;;
11394;SDS011;5753;54.402;10.220;2023-07-20T13:30:17;3.47;;;1.73;;
11394;SDS011;5753;54.402;10.220;2023-07-20T13:32:43;2.55;;;1.27;;
11394;SDS011;5753;54.402;10.220;2023-07-20T13:35:10;4.13;;;1.25;;
11394;SDS011;5753;54.402;10.220;2023-07-20T13:37:37;1.50;;;0.77;;
11394;SDS011;5753;54.402;10.220;2023-07-20T13:40:03;2.63;;;1.05;;
11394;SDS011;5753;54.402;10.220;2023-07-20T13:42:30;5.63;;;1.10;;
11394;SDS011;5753;54.402;10.220;2023-07-20T13:44:57;4.03;;;0.90;;
11394;SDS011;5753;54.402;10.220;2023-07-20T13:47:24;1.55;;;1.45;;
11394;SDS011;5753;54.402;10.220;2023-07-20T13:49:51;1.60;;;0.90;;
11394;SDS011;5753;54.402;10.220;2023-07-20T13:52:17;2.60;;;0.65;;
11394;SDS011;5753;54.402;10.220;2023-07-20T13:54:43;2.42;;;0.90;;
11394;SDS011;5753;54.402;10.220;2023-07-20T13:57:09;2.03;;;0.95;;
11394;SDS011;5753;54.402;10.220;2023-07-20T13:59:35;2.95;;;0.95;;
11394;SDS011;5753;54.402;10.220;2023-07-20T14:02:01;3.70;;;1.10;;
11394;SDS011;5753;54.402;10.220;2023-07-20T14:04:28;2.45;;;1.73;;
11394;SDS011;5753;54.402;10.220;2023-07-20T14:06:54;3.03;;;0.95;;
11394;SDS011;5753;54.402;10.220;2023-07-20T14:09:20;2.35;;;1.40;;
11394;SDS011;5753;54.402;10.220;2023-07-20T14:11:46;1.40;;;0.85;;
11394;SDS011;5753;54.402;10.220;2023-07-20T14:14:12;1.88;;;1.45;;
11394;SDS011;5753;54.402;10.220;2023-07-20T14:16:39;3.35;;;1.15;;
11394;SDS011;5753;54.402;10.220;2023-07-20T14:19:05;1.50;;;0.80;;
11394;SDS011;5753;54.402;10.220;2023-07-20T14:21:31;1.77;;;0.93;;
11394;SDS011;5753;54.402;10.220;2023-07-20T14:23:58;2.70;;;1.25;;
11394;SDS011;5753;54.402;10.220;2023-07-20T14:26:24;3.45;;;1.05;;
11394;SDS011;5753;54.402;10.220;2023-07-20T14:28:50;2.60;;;2.03;;
11394;SDS011;5753;54.402;10.220;2023-07-20T14:31:16;3.05;;;1.50;;
11394;SDS011;5753;54.402;10.220;2023-07-20T14:33:43;1.75;;;0.75;;
11394;SDS011;5753;54.402;10.220;2023-07-20T14:36:09;0.95;;;0.85;;
11394;SDS011;5753;54.402;10.220;2023-07-20T14:38:35;1.60;;;1.23;;
11394;SDS011;5753;54.402;10.220;2023-07-20T14:41:03;2.03;;;1.17;;
11394;SDS011;5753;54.402;10.220;2023-07-20T14:43:31;3.67;;;1.40;;
11394;SDS011;5753;54.402;10.220;2023-07-20T14:45:57;4.13;;;1.45;;
11394;SDS011;5753;54.402;10.220;2023-07-20T14:48:23;2.90;;;1.27;;
11394;SDS011;5753;54.402;10.220;2023-07-20T14:50:49;2.80;;;1.15;;
11394;SDS011;5753;54.402;10.220;2023-07-20T14:53:15;1.45;;;1.00;;
11394;SDS011;5753;54.402;10.220;2023-07-20T14:55:41;4.88;;;1.60;;
11394;SDS011;5753;54.402;10.220;2023-07-20T14:58:08;3.40;;;1.48;;
11394;SDS011;5753;54.402;10.220;2023-07-20T15:00:34;2.30;;;1.35;;
11394;SDS011;5753;54.402;10.220;2023-07-20T15:03:00;2.00;;;1.40;;
11394;SDS011;5753;54.402;10.220;2023-07-20T15:05:26;2.13;;;1.17;;
11394;SDS011;5753;54.402;10.220;2023-07-20T15:07:52;2.15;;;1.17;;
11394;SDS011;5753;54.402;10.220;2023-07-20T15:10:19;6.35;;;1.10;;
11394;SDS011;5753;54.402;10.220;2023-07-20T15:12:45;1.30;;;1.20;;